An Nasiriyah, Iraq
Current Conditions -  °F | °C
As of 12:55 PM on Saturday 29 Nov 2014 (Local Time) from KQWM Reporting Station
Clear Clear  
Wind Chill: 18°   Ceiling: Unl
Heat Index: 18°   Visibility: 6mi
Dew Point:   Wind: 24mph
Humidity: 40%   Direction: 320°NW
Pressure: 30.17"   Gusts: 29mph
Location:  31.04°N, 46.26°E
Report Text: KQWM 290955Z 32021G25KT 9999 CLR 18/04 A3017 RMK SLP214 QNH1021
Loading
Personal Weather Stations






























Interactive Weather Map New forecast layout! Learn more

10-Day Weather Forecast

Advertisements
Track Severe Weather on mobile